Weather observations for the past three days for
Henderson Field Airport
Imperial (Metric)
Date Time (sst) Wind (mph) Vis. (mi.) Weather Sky Cond. Temperature (ºF) Relative Humidity Wind Chill (°F) Heat Index (°F) Pressure Precipitation (in)
Air Dwpt 6 hour altimeter (in) sea level (mb) 1 hr 3 hr 6 hr
Max. Min.
07 09:56 NE 8 10.00 Light Rain BKN017 OVC026 70 63 79% 30.26 1025.0
07 08:56 NE 7 10.00 Overcast OVC036 70 61 73% 30.26 1024.9
07 07:56 E 7 10.00 Overcast OVC030 69.1 61 76% 30.25 1024.4
07 06:56 NE 6 10.00 Overcast OVC028 68 57.9 68 66 70% 30.24 1024.2
07 05:56 NE 3 10.00 Overcast OVC028 68 57.9 70% 30.22 1023.5
07 04:56 N 3 10.00 Fair CLR 66 57 73% 30.22 1023.3
07 03:56 NE 3 10.00 Overcast FEW037 OVC090 66.9 57.9 73% 30.22 1023.5
07 02:56 Calm 10.00 Partly Cloudy FEW038 SCT075 66.9 59 76% 30.22 1023.5
07 01:56 N 3 10.00 Overcast SCT025 BKN038 OVC080 68 59 73% 30.23 1023.7
07 00:56 NE 3 10.00 Mostly Cloudy FEW024 BKN060 BKN075 66.9 57.9 69.1 66.9 73% 30.24 1024.0
06 23:56 E 5 10.00 Overcast FEW060 BKN070 OVC100 68 57.9 70% 30.24 1024.1
06 22:56 E 6 10.00 Overcast BKN045 BKN075 OVC090 69.1 57.9 68% 30.25 1024.3
06 21:56 E 6 10.00 Overcast OVC045 69.1 57.9 68% 30.24 1024.2
06 20:56 E 6 10.00 A Few Clouds FEW027 66.9 57.9 73% 30.23 1023.9
06 19:56 NE 6 10.00 A Few Clouds FEW025 68 57.9 70% 30.21 1023.1
06 18:56 N 6 10.00 Fair CLR 70 57.9 75 69.1 66% 30.2 1022.7
06 17:56 Vrbl 5 10.00 Fair CLR 71.1 57 61% 30.18 1022.1
06 16:56 NE 7 10.00 Fair CLR 72 55.9 57% 30.17 1021.6
06 15:56 NE 7 10.00 Fair CLR 72 55 55% 30.17 1021.6
06 14:56 NE 7 10.00 Fair CLR 73 54 51% 30.18 1022.0
06 13:56 N 12 G 18 10.00 A Few Clouds FEW026 73 57.9 59% 30.19 1022.5
06 12:56 N 10 10.00 Fair CLR 73 57 73.9 66 57% 30.2 1022.7
06 11:56 N 8 10.00 Fair CLR 72 57 59% 30.19 1022.6
06 10:56 N 5 10.00 Fair CLR 72 57.9 61% 30.2 1022.8
06 09:56 N 8 10.00 A Few Clouds FEW023 72 57.9 61% 30.2 1022.8
06 08:56 N 7 10.00 Mostly Cloudy BKN023 70 59 68% 30.19 1022.6
06 07:56 N 6 10.00 Partly Cloudy SCT023 68 57.9 70% 30.19 1022.4
06 06:56 N 3 10.00 A Few Clouds FEW023 66 59 66 63 78% 30.18 1021.9
06 05:56 Calm 10.00 Mostly Cloudy BKN023 64 57.9 81% 30.16 1021.3
06 04:56 Calm 10.00 Mostly Cloudy BKN023 64 57 78% 30.15 1021.0
06 03:56 N 3 10.00 Mostly Cloudy BKN023 64.9 57.9 78% 30.16 1021.4
06 02:56 N 3 10.00 Partly Cloudy SCT023 64.9 57.9 78% 30.16 1021.6
06 01:56 N 5 10.00 Partly Cloudy SCT025 66 57 73% 30.18 1022.1
06 00:56 N 3 10.00 Partly Cloudy SCT023 66 57.9 69.1 66 75% 30.19 1022.5
05 23:56 N 5 10.00 Partly Cloudy SCT025 66 57.9 75% 30.21 1023.0
05 22:56 N 6 10.00 Mostly Cloudy SCT025 BKN033 66.9 57.9 73% 30.21 1023.2
05 21:56 N 6 10.00 Mostly Cloudy BKN023 66.9 59 76% 30.21 1023.2
05 20:56 N 6 10.00 Partly Cloudy SCT023 SCT028 SCT037 68 59 73% 30.2 1022.6
05 19:56 N 7 10.00 A Few Clouds FEW025 68 57.9 70% 30.18 1022.2
05 18:56 N 7 10.00 Mostly Cloudy FEW022 BKN039 69.1 59 71.1 68 70% 30.17 1021.6
05 17:56 N 9 10.00 Overcast BKN022 BKN033 OVC039 70 60.1 71% 30.16 1021.4
05 16:56 NW 6 10.00 Overcast BKN020 OVC038 70 61 73% 30.16 1021.5
05 15:56 N 8 10.00 Partly Cloudy SCT038 71.1 61 71% 30.17 1021.7
05 14:56 N 7 10.00 A Few Clouds FEW022 71.1 62.1 73% 30.19 1022.3
05 13:56 N 7 9.00 Light Rain BKN020 BKN032 OVC040 70 61 73% 30.21 1023.1
05 12:56 N 8 9.00 Overcast FEW015 BKN029 OVC037 70 61 73 66 73% 30.22 1023.5
05 11:56 Vrbl 5 10.00 Mostly Cloudy BKN038 71.1 60.1 68% 30.24 1024.1
05 10:56 N 6 5.00 Overcast with Haze BKN021 OVC027 66.9 59 76% 30.25 1024.6
05 09:56 N 5 10.00 Overcast OVC031 68 57.9 70% 30.25 1024.4
05 08:56 N 3 10.00 Overcast OVC025 66.9 57 71% 30.24 1024.3
05 07:56 N 5 10.00 Overcast OVC027 66.9 55.9 68% 30.24 1024.0
05 06:56 N 5 10.00 Overcast OVC025 66 55.9 66.9 64.9 70% 30.22 1023.5
05 05:56 N 6 10.00 Overcast OVC025 66 55.9 70% 30.21 1023.1
05 04:56 N 6 10.00 Overcast OVC029 66 55.9 70% 30.21 1023.0
05 03:56 N 5 10.00 Mostly Cloudy BKN033 66 55 68% 30.2 1022.9
05 02:56 N 7 10.00 Mostly Cloudy BKN031 66 54 65% 30.2 1022.9
05 01:56 N 3 10.00 Partly Cloudy SCT031 66 54 65% 30.21 1023.3
05 00:56 N 5 10.00 Mostly Cloudy BKN029 66 55 66.9 64.9 68% 30.23 1023.7
04 23:56 N 6 10.00 Mostly Cloudy BKN029 66 55.9 70% 30.24 1024.2
04 22:56 N 3 10.00 A Few Clouds FEW027 66 55.9 70% 30.25 1024.5
04 21:56 N 6 10.00 Mostly Cloudy BKN031 66 55.9 70% 30.25 1024.5
04 20:56 Calm 10.00 Mostly Cloudy BKN033 66 55.9 70% 30.25 1024.5
04 19:56 N 3 10.00 A Few Clouds FEW029 66 55 68% 30.23 1023.9
04 18:56 NE 3 10.00 A Few Clouds FEW027 68 55.9 73 68 65% 30.22 1023.6
04 17:56 NE 7 10.00 Partly Cloudy FEW027 SCT034 69.1 55.9 63% 30.23 1023.9
04 16:56 N 6 10.00 Mostly Cloudy BKN027 71.1 57 61% 30.23 1023.9
04 15:56 NE 7 10.00 Fair CLR 71.1 57 61% 30.24 1024.0
04 14:56 N 7 10.00 Fair CLR 73 55 53% 30.25 1024.3
04 13:56 NE 8 10.00 Partly Cloudy SCT035 72 55 55% 30.26 1024.8
04 12:56 Vrbl 7 10.00 Mostly Cloudy BKN035 73 55 73 66.9 53% 30.27 1025.2
04 11:56 NE 7 8.00 Fair CLR 72 54 53% 30.29 1025.7
04 10:56 Vrbl 7 10.00 Fair CLR 72 53.1 52% 30.3 1026.1
Date Time (sst) Wind (mph) Vis. (mi.) Weather Sky Cond. Air Dwpt Max. Min. Relative Humidity Wind Chill (°F) Heat Index (°F) altimeter (in) sea level (mb) 1 hr 3 hr 6 hr
6 hour
Temperature (ºF) Pressure Precipitation (in)